sensor_id;sensor_type;location;lat;lon;timestamp;P1;durP1;ratioP1;P2;durP2;ratioP2
19291;SDS011;9779;51.756;7.450;2023-02-28T00:00:50;4.43;;;4.00;;
19291;SDS011;9779;51.756;7.450;2023-02-28T00:03:16;6.07;;;4.17;;
19291;SDS011;9779;51.756;7.450;2023-02-28T00:05:42;6.10;;;3.43;;
19291;SDS011;9779;51.756;7.450;2023-02-28T00:08:08;3.80;;;3.50;;
19291;SDS011;9779;51.756;7.450;2023-02-28T00:10:34;6.93;;;3.47;;
19291;SDS011;9779;51.756;7.450;2023-02-28T00:13:01;4.00;;;3.70;;
19291;SDS011;9779;51.756;7.450;2023-02-28T00:15:29;4.40;;;3.10;;
19291;SDS011;9779;51.756;7.450;2023-02-28T00:17:55;5.60;;;2.83;;
19291;SDS011;9779;51.756;7.450;2023-02-28T00:20:20;3.00;;;2.80;;
19291;SDS011;9779;51.756;7.450;2023-02-28T00:22:47;6.20;;;2.77;;
19291;SDS011;9779;51.756;7.450;2023-02-28T00:25:16;2.77;;;2.57;;
19291;SDS011;9779;51.756;7.450;2023-02-28T00:27:43;3.87;;;2.90;;
19291;SDS011;9779;51.756;7.450;2023-02-28T00:30:10;2.90;;;2.60;;
19291;SDS011;9779;51.756;7.450;2023-02-28T00:32:41;2.80;;;2.60;;
19291;SDS011;9779;51.756;7.450;2023-02-28T00:35:07;3.37;;;2.80;;
19291;SDS011;9779;51.756;7.450;2023-02-28T00:37:34;5.50;;;3.27;;
19291;SDS011;9779;51.756;7.450;2023-02-28T00:39:59;2.83;;;2.63;;
19291;SDS011;9779;51.756;7.450;2023-02-28T00:42:25;5.93;;;2.53;;
19291;SDS011;9779;51.756;7.450;2023-02-28T00:44:52;4.40;;;2.83;;
19291;SDS011;9779;51.756;7.450;2023-02-28T00:47:17;2.93;;;2.60;;
19291;SDS011;9779;51.756;7.450;2023-02-28T00:49:43;3.10;;;2.70;;
19291;SDS011;9779;51.756;7.450;2023-02-28T00:52:09;3.10;;;2.67;;
19291;SDS011;9779;51.756;7.450;2023-02-28T00:54:35;2.97;;;2.77;;
19291;SDS011;9779;51.756;7.450;2023-02-28T00:57:00;3.00;;;2.80;;
19291;SDS011;9779;51.756;7.450;2023-02-28T00:59:26;7.47;;;2.43;;
19291;SDS011;9779;51.756;7.450;2023-02-28T01:01:52;2.90;;;2.70;;
19291;SDS011;9779;51.756;7.450;2023-02-28T01:04:17;4.33;;;2.67;;
19291;SDS011;9779;51.756;7.450;2023-02-28T01:06:43;3.50;;;3.20;;
19291;SDS011;9779;51.756;7.450;2023-02-28T01:09:09;2.60;;;2.40;;
19291;SDS011;9779;51.756;7.450;2023-02-28T01:11:35;2.37;;;2.23;;
19291;SDS011;9779;51.756;7.450;2023-02-28T01:14:01;2.83;;;2.63;;
19291;SDS011;9779;51.756;7.450;2023-02-28T01:16:27;3.33;;;3.07;;
19291;SDS011;9779;51.756;7.450;2023-02-28T01:18:53;3.00;;;2.80;;
19291;SDS011;9779;51.756;7.450;2023-02-28T01:21:19;3.23;;;2.07;;
19291;SDS011;9779;51.756;7.450;2023-02-28T01:23:46;4.17;;;3.03;;
19291;SDS011;9779;51.756;7.450;2023-02-28T01:26:22;3.40;;;3.10;;
19291;SDS011;9779;51.756;7.450;2023-02-28T01:28:51;3.13;;;2.93;;
19291;SDS011;9779;51.756;7.450;2023-02-28T01:31:18;3.17;;;2.87;;
19291;SDS011;9779;51.756;7.450;2023-02-28T01:33:45;2.50;;;2.10;;
19291;SDS011;9779;51.756;7.450;2023-02-28T01:36:12;2.73;;;2.53;;
19291;SDS011;9779;51.756;7.450;2023-02-28T01:38:42;2.20;;;2.10;;
19291;SDS011;9779;51.756;7.450;2023-02-28T01:41:08;2.70;;;2.50;;
19291;SDS011;9779;51.756;7.450;2023-02-28T01:46:07;4.83;;;2.70;;
19291;SDS011;9779;51.756;7.450;2023-02-28T01:48:34;6.00;;;3.00;;
19291;SDS011;9779;51.756;7.450;2023-02-28T01:51:05;2.90;;;2.70;;
19291;SDS011;9779;51.756;7.450;2023-02-28T01:53:39;3.50;;;2.80;;
19291;SDS011;9779;51.756;7.450;2023-02-28T01:56:09;4.93;;;3.47;;
19291;SDS011;9779;51.756;7.450;2023-02-28T01:58:39;3.77;;;2.70;;
19291;SDS011;9779;51.756;7.450;2023-02-28T02:01:05;3.57;;;3.27;;
19291;SDS011;9779;51.756;7.450;2023-02-28T02:03:31;3.23;;;2.73;;
19291;SDS011;9779;51.756;7.450;2023-02-28T02:05:56;3.47;;;3.17;;
19291;SDS011;9779;51.756;7.450;2023-02-28T02:08:23;3.67;;;2.50;;
19291;SDS011;9779;51.756;7.450;2023-02-28T02:10:52;6.93;;;2.90;;
19291;SDS011;9779;51.756;7.450;2023-02-28T02:19:22;6.40;;;3.37;;
19291;SDS011;9779;51.756;7.450;2023-02-28T02:33:16;4.60;;;2.50;;
19291;SDS011;9779;51.756;7.450;2023-02-28T02:38:44;2.73;;;2.50;;
19291;SDS011;9779;51.756;7.450;2023-02-28T02:41:26;3.90;;;2.40;;
19291;SDS011;9779;51.756;7.450;2023-02-28T02:44:46;2.47;;;2.33;;
19291;SDS011;9779;51.756;7.450;2023-02-28T02:46:57;3.07;;;2.87;;
19291;SDS011;9779;51.756;7.450;2023-02-28T02:49:35;3.37;;;2.73;;
19291;SDS011;9779;51.756;7.450;2023-02-28T02:52:04;3.30;;;3.10;;
19291;SDS011;9779;51.756;7.450;2023-02-28T02:54:36;2.93;;;2.60;;
19291;SDS011;9779;51.756;7.450;2023-02-28T02:57:08;3.63;;;3.23;;
19291;SDS011;9779;51.756;7.450;2023-02-28T02:59:41;3.03;;;2.80;;
19291;SDS011;9779;51.756;7.450;2023-02-28T03:02:08;5.97;;;2.97;;
19291;SDS011;9779;51.756;7.450;2023-02-28T03:04:42;3.03;;;2.83;;
19291;SDS011;9779;51.756;7.450;2023-02-28T03:07:11;2.87;;;2.67;;
19291;SDS011;9779;51.756;7.450;2023-02-28T03:09:37;3.20;;;2.90;;
19291;SDS011;9779;51.756;7.450;2023-02-28T03:12:02;3.67;;;2.60;;
19291;SDS011;9779;51.756;7.450;2023-02-28T03:14:32;3.90;;;2.50;;
19291;SDS011;9779;51.756;7.450;2023-02-28T03:20:23;5.53;;;2.90;;
19291;SDS011;9779;51.756;7.450;2023-02-28T03:28:40;3.07;;;2.80;;
19291;SDS011;9779;51.756;7.450;2023-02-28T03:31:20;3.97;;;3.17;;
19291;SDS011;9779;51.756;7.450;2023-02-28T03:33:52;3.83;;;3.53;;
19291;SDS011;9779;51.756;7.450;2023-02-28T03:36:27;3.20;;;2.97;;
19291;SDS011;9779;51.756;7.450;2023-02-28T03:38:57;3.47;;;3.10;;
19291;SDS011;9779;51.756;7.450;2023-02-28T03:41:49;2.70;;;2.50;;
19291;SDS011;9779;51.756;7.450;2023-02-28T03:44:18;3.03;;;2.73;;
19291;SDS011;9779;51.756;7.450;2023-02-28T03:47:00;3.20;;;3.00;;
19291;SDS011;9779;51.756;7.450;2023-02-28T03:49:45;2.80;;;2.60;;
19291;SDS011;9779;51.756;7.450;2023-02-28T03:52:15;2.77;;;2.57;;
19291;SDS011;9779;51.756;7.450;2023-02-28T03:54:45;3.53;;;2.83;;
19291;SDS011;9779;51.756;7.450;2023-02-28T03:57:32;4.73;;;2.90;;
19291;SDS011;9779;51.756;7.450;2023-02-28T04:00:30;4.50;;;3.60;;
19291;SDS011;9779;51.756;7.450;2023-02-28T04:03:00;3.20;;;3.00;;
19291;SDS011;9779;51.756;7.450;2023-02-28T04:05:26;5.47;;;3.20;;
19291;SDS011;9779;51.756;7.450;2023-02-28T04:07:52;3.50;;;3.20;;
19291;SDS011;9779;51.756;7.450;2023-02-28T04:10:19;6.27;;;3.10;;
19291;SDS011;9779;51.756;7.450;2023-02-28T04:12:45;2.83;;;2.63;;
19291;SDS011;9779;51.756;7.450;2023-02-28T04:15:10;3.53;;;3.17;;
19291;SDS011;9779;51.756;7.450;2023-02-28T04:17:36;3.47;;;3.17;;
19291;SDS011;9779;51.756;7.450;2023-02-28T04:20:02;2.73;;;2.53;;
19291;SDS011;9779;51.756;7.450;2023-02-28T04:22:28;3.23;;;2.63;;
19291;SDS011;9779;51.756;7.450;2023-02-28T04:24:54;6.27;;;3.03;;
19291;SDS011;9779;51.756;7.450;2023-02-28T04:27:20;3.40;;;3.10;;
19291;SDS011;9779;51.756;7.450;2023-02-28T04:29:46;4.30;;;3.07;;
19291;SDS011;9779;51.756;7.450;2023-02-28T04:32:12;3.40;;;3.10;;
19291;SDS011;9779;51.756;7.450;2023-02-28T04:34:38;5.07;;;3.03;;
19291;SDS011;9779;51.756;7.450;2023-02-28T04:37:05;2.97;;;2.77;;
19291;SDS011;9779;51.756;7.450;2023-02-28T04:39:34;3.37;;;3.17;;
19291;SDS011;9779;51.756;7.450;2023-02-28T04:42:01;3.33;;;3.03;;
19291;SDS011;9779;51.756;7.450;2023-02-28T04:44:27;5.10;;;3.90;;
19291;SDS011;9779;51.756;7.450;2023-02-28T04:46:53;4.03;;;3.73;;
19291;SDS011;9779;51.756;7.450;2023-02-28T04:49:18;3.90;;;3.60;;
19291;SDS011;9779;51.756;7.450;2023-02-28T04:51:44;4.63;;;4.33;;
19291;SDS011;9779;51.756;7.450;2023-02-28T04:54:09;3.90;;;3.60;;
19291;SDS011;9779;51.756;7.450;2023-02-28T04:56:35;4.97;;;3.47;;
19291;SDS011;9779;51.756;7.450;2023-02-28T04:59:01;4.57;;;4.27;;
19291;SDS011;9779;51.756;7.450;2023-02-28T05:01:30;7.83;;;3.43;;
19291;SDS011;9779;51.756;7.450;2023-02-28T05:03:58;3.80;;;3.37;;
19291;SDS011;9779;51.756;7.450;2023-02-28T05:06:25;4.13;;;3.73;;
19291;SDS011;9779;51.756;7.450;2023-02-28T05:08:51;4.47;;;3.40;;
19291;SDS011;9779;51.756;7.450;2023-02-28T05:11:24;4.13;;;3.43;;
19291;SDS011;9779;51.756;7.450;2023-02-28T05:13:51;4.87;;;3.57;;
19291;SDS011;9779;51.756;7.450;2023-02-28T05:16:18;11.10;;;3.47;;
19291;SDS011;9779;51.756;7.450;2023-02-28T05:18:44;3.90;;;3.60;;
19291;SDS011;9779;51.756;7.450;2023-02-28T05:21:30;5.37;;;4.27;;
19291;SDS011;9779;51.756;7.450;2023-02-28T05:23:58;5.20;;;3.90;;
19291;SDS011;9779;51.756;7.450;2023-02-28T05:26:33;4.37;;;4.03;;
19291;SDS011;9779;51.756;7.450;2023-02-28T05:29:00;6.90;;;4.27;;
19291;SDS011;9779;51.756;7.450;2023-02-28T05:31:26;5.53;;;4.90;;
19291;SDS011;9779;51.756;7.450;2023-02-28T05:33:51;6.27;;;4.27;;
19291;SDS011;9779;51.756;7.450;2023-02-28T05:36:17;4.10;;;3.80;;
19291;SDS011;9779;51.756;7.450;2023-02-28T05:38:45;4.80;;;4.40;;
19291;SDS011;9779;51.756;7.450;2023-02-28T05:41:12;4.63;;;3.70;;
19291;SDS011;9779;51.756;7.450;2023-02-28T05:43:38;3.97;;;3.67;;
19291;SDS011;9779;51.756;7.450;2023-02-28T05:46:07;4.47;;;3.63;;
19291;SDS011;9779;51.756;7.450;2023-02-28T05:48:35;3.77;;;3.47;;
19291;SDS011;9779;51.756;7.450;2023-02-28T05:51:02;5.50;;;4.17;;
19291;SDS011;9779;51.756;7.450;2023-02-28T05:53:28;4.50;;;4.07;;
19291;SDS011;9779;51.756;7.450;2023-02-28T05:55:54;3.73;;;3.37;;
19291;SDS011;9779;51.756;7.450;2023-02-28T05:58:20;5.53;;;3.27;;
19291;SDS011;9779;51.756;7.450;2023-02-28T06:00:46;4.10;;;3.50;;
19291;SDS011;9779;51.756;7.450;2023-02-28T06:03:12;3.13;;;2.93;;
19291;SDS011;9779;51.756;7.450;2023-02-28T06:05:37;7.17;;;3.30;;
19291;SDS011;9779;51.756;7.450;2023-02-28T06:08:03;8.33;;;3.53;;
19291;SDS011;9779;51.756;7.450;2023-02-28T06:10:31;6.30;;;5.80;;
19291;SDS011;9779;51.756;7.450;2023-02-28T06:12:59;5.07;;;4.20;;
19291;SDS011;9779;51.756;7.450;2023-02-28T06:15:27;4.13;;;3.80;;
19291;SDS011;9779;51.756;7.450;2023-02-28T06:17:53;5.87;;;3.57;;
19291;SDS011;9779;51.756;7.450;2023-02-28T06:20:21;5.40;;;4.27;;
19291;SDS011;9779;51.756;7.450;2023-02-28T06:22:47;7.37;;;5.13;;
19291;SDS011;9779;51.756;7.450;2023-02-28T06:25:13;11.37;;;7.37;;
19291;SDS011;9779;51.756;7.450;2023-02-28T06:27:38;13.33;;;7.00;;
19291;SDS011;9779;51.756;7.450;2023-02-28T06:30:04;19.23;;;11.17;;
19291;SDS011;9779;51.756;7.450;2023-02-28T06:32:30;18.10;;;12.20;;
19291;SDS011;9779;51.756;7.450;2023-02-28T06:34:55;17.67;;;11.57;;
19291;SDS011;9779;51.756;7.450;2023-02-28T06:37:22;18.17;;;10.73;;
19291;SDS011;9779;51.756;7.450;2023-02-28T06:39:51;15.17;;;10.47;;
19291;SDS011;9779;51.756;7.450;2023-02-28T06:42:16;15.20;;;8.90;;
19291;SDS011;9779;51.756;7.450;2023-02-28T06:44:42;7.23;;;6.50;;
19291;SDS011;9779;51.756;7.450;2023-02-28T06:47:08;9.53;;;6.63;;
19291;SDS011;9779;51.756;7.450;2023-02-28T06:49:34;9.83;;;6.80;;
19291;SDS011;9779;51.756;7.450;2023-02-28T06:52:00;8.73;;;6.43;;
19291;SDS011;9779;51.756;7.450;2023-02-28T06:54:27;9.53;;;6.67;;
19291;SDS011;9779;51.756;7.450;2023-02-28T06:56:52;7.60;;;6.57;;
19291;SDS011;9779;51.756;7.450;2023-02-28T06:59:19;7.50;;;6.20;;
19291;SDS011;9779;51.756;7.450;2023-02-28T07:01:45;8.53;;;6.90;;
19291;SDS011;9779;51.756;7.450;2023-02-28T07:04:11;7.90;;;7.10;;
19291;SDS011;9779;51.756;7.450;2023-02-28T07:06:37;12.53;;;8.63;;
19291;SDS011;9779;51.756;7.450;2023-02-28T07:09:03;14.40;;;10.23;;
19291;SDS011;9779;51.756;7.450;2023-02-28T07:11:29;11.20;;;9.20;;
19291;SDS011;9779;51.756;7.450;2023-02-28T07:13:55;18.83;;;8.90;;
19291;SDS011;9779;51.756;7.450;2023-02-28T07:16:21;13.70;;;9.53;;
19291;SDS011;9779;51.756;7.450;2023-02-28T07:18:48;20.27;;;10.87;;
19291;SDS011;9779;51.756;7.450;2023-02-28T07:21:14;23.50;;;10.47;;
19291;SDS011;9779;51.756;7.450;2023-02-28T07:23:40;22.13;;;10.07;;
19291;SDS011;9779;51.756;7.450;2023-02-28T07:26:07;16.77;;;9.40;;
19291;SDS011;9779;51.756;7.450;2023-02-28T07:28:37;9.33;;;7.87;;
19291;SDS011;9779;51.756;7.450;2023-02-28T07:31:06;12.27;;;8.30;;
19291;SDS011;9779;51.756;7.450;2023-02-28T07:33:32;10.27;;;6.70;;
19291;SDS011;9779;51.756;7.450;2023-02-28T07:36:03;10.30;;;7.57;;
19291;SDS011;9779;51.756;7.450;2023-02-28T07:38:30;8.73;;;6.80;;
19291;SDS011;9779;51.756;7.450;2023-02-28T07:40:58;9.77;;;7.33;;
19291;SDS011;9779;51.756;7.450;2023-02-28T07:43:23;8.90;;;6.30;;
19291;SDS011;9779;51.756;7.450;2023-02-28T07:45:49;5.90;;;5.40;;
19291;SDS011;9779;51.756;7.450;2023-02-28T07:48:14;7.80;;;5.10;;
19291;SDS011;9779;51.756;7.450;2023-02-28T07:50:40;5.80;;;4.93;;
19291;SDS011;9779;51.756;7.450;2023-02-28T07:53:05;7.70;;;5.20;;
19291;SDS011;9779;51.756;7.450;2023-02-28T07:55:31;9.80;;;6.70;;
19291;SDS011;9779;51.756;7.450;2023-02-28T07:57:57;7.03;;;6.33;;
19291;SDS011;9779;51.756;7.450;2023-02-28T08:00:23;6.07;;;5.53;;
19291;SDS011;9779;51.756;7.450;2023-02-28T08:02:49;5.27;;;4.87;;
19291;SDS011;9779;51.756;7.450;2023-02-28T08:05:15;4.73;;;4.33;;
19291;SDS011;9779;51.756;7.450;2023-02-28T08:07:41;4.07;;;3.70;;
19291;SDS011;9779;51.756;7.450;2023-02-28T08:10:06;4.10;;;3.80;;
19291;SDS011;9779;51.756;7.450;2023-02-28T08:12:34;4.77;;;4.23;;
19291;SDS011;9779;51.756;7.450;2023-02-28T08:15:00;3.73;;;3.43;;
19291;SDS011;9779;51.756;7.450;2023-02-28T08:17:25;6.90;;;4.37;;
19291;SDS011;9779;51.756;7.450;2023-02-28T08:19:51;4.10;;;3.50;;
19291;SDS011;9779;51.756;7.450;2023-02-28T08:22:17;3.87;;;3.57;;
19291;SDS011;9779;51.756;7.450;2023-02-28T08:24:42;3.90;;;3.50;;
19291;SDS011;9779;51.756;7.450;2023-02-28T08:27:08;3.87;;;3.23;;
19291;SDS011;9779;51.756;7.450;2023-02-28T08:29:36;6.00;;;3.07;;
19291;SDS011;9779;51.756;7.450;2023-02-28T08:32:02;3.50;;;3.20;;
19291;SDS011;9779;51.756;7.450;2023-02-28T08:34:28;3.33;;;2.70;;
19291;SDS011;9779;51.756;7.450;2023-02-28T08:36:54;4.03;;;3.40;;
19291;SDS011;9779;51.756;7.450;2023-02-28T08:39:20;3.40;;;3.03;;
19291;SDS011;9779;51.756;7.450;2023-02-28T08:41:46;4.70;;;3.20;;
19291;SDS011;9779;51.756;7.450;2023-02-28T08:44:11;7.27;;;2.90;;
19291;SDS011;9779;51.756;7.450;2023-02-28T08:46:37;3.30;;;2.67;;
19291;SDS011;9779;51.756;7.450;2023-02-28T08:49:03;2.80;;;2.53;;
19291;SDS011;9779;51.756;7.450;2023-02-28T08:51:29;2.43;;;2.33;;
19291;SDS011;9779;51.756;7.450;2023-02-28T08:53:56;2.00;;;1.90;;
19291;SDS011;9779;51.756;7.450;2023-02-28T08:56:24;2.10;;;1.90;;
19291;SDS011;9779;51.756;7.450;2023-02-28T08:58:51;2.50;;;2.30;;
19291;SDS011;9779;51.756;7.450;2023-02-28T09:01:21;2.00;;;1.90;;
19291;SDS011;9779;51.756;7.450;2023-02-28T09:03:49;3.33;;;2.00;;
19291;SDS011;9779;51.756;7.450;2023-02-28T09:06:17;1.53;;;1.43;;
19291;SDS011;9779;51.756;7.450;2023-02-28T09:08:44;1.90;;;1.70;;
19291;SDS011;9779;51.756;7.450;2023-02-28T09:11:10;1.83;;;1.40;;
19291;SDS011;9779;51.756;7.450;2023-02-28T09:13:36;5.20;;;2.17;;
19291;SDS011;9779;51.756;7.450;2023-02-28T09:16:03;2.03;;;1.80;;
19291;SDS011;9779;51.756;7.450;2023-02-28T09:18:31;2.00;;;1.90;;
19291;SDS011;9779;51.756;7.450;2023-02-28T09:20:58;1.53;;;1.43;;
19291;SDS011;9779;51.756;7.450;2023-02-28T09:23:24;1.50;;;1.40;;
19291;SDS011;9779;51.756;7.450;2023-02-28T09:25:51;2.77;;;1.70;;
19291;SDS011;9779;51.756;7.450;2023-02-28T09:28:18;1.60;;;1.50;;
19291;SDS011;9779;51.756;7.450;2023-02-28T09:30:45;1.93;;;1.60;;
19291;SDS011;9779;51.756;7.450;2023-02-28T09:33:13;1.43;;;1.33;;
19291;SDS011;9779;51.756;7.450;2023-02-28T09:35:39;1.60;;;1.50;;
19291;SDS011;9779;51.756;7.450;2023-02-28T09:38:05;1.60;;;1.50;;
19291;SDS011;9779;51.756;7.450;2023-02-28T09:40:34;3.57;;;1.30;;
19291;SDS011;9779;51.756;7.450;2023-02-28T09:43:02;1.47;;;1.37;;
19291;SDS011;9779;51.756;7.450;2023-02-28T09:45:41;1.27;;;1.20;;
19291;SDS011;9779;51.756;7.450;2023-02-28T09:48:20;2.23;;;1.57;;
19291;SDS011;9779;51.756;7.450;2023-02-28T09:50:50;1.70;;;1.60;;
19291;SDS011;9779;51.756;7.450;2023-02-28T09:53:28;1.97;;;1.73;;
19291;SDS011;9779;51.756;7.450;2023-02-28T09:56:09;2.53;;;1.90;;
19291;SDS011;9779;51.756;7.450;2023-02-28T10:01:20;1.63;;;1.20;;
19291;SDS011;9779;51.756;7.450;2023-02-28T10:08:18;1.27;;;1.13;;
19291;SDS011;9779;51.756;7.450;2023-02-28T10:13:02;1.50;;;1.40;;
19291;SDS011;9779;51.756;7.450;2023-02-28T10:15:31;3.57;;;1.20;;
19291;SDS011;9779;51.756;7.450;2023-02-28T10:18:00;1.70;;;1.53;;
19291;SDS011;9779;51.756;7.450;2023-02-28T10:20:30;1.70;;;1.60;;
19291;SDS011;9779;51.756;7.450;2023-02-28T10:23:12;1.17;;;1.17;;
19291;SDS011;9779;51.756;7.450;2023-02-28T10:26:00;1.50;;;1.40;;
19291;SDS011;9779;51.756;7.450;2023-02-28T10:28:34;1.43;;;1.33;;
19291;SDS011;9779;51.756;7.450;2023-02-28T10:31:00;1.60;;;1.50;;
19291;SDS011;9779;51.756;7.450;2023-02-28T10:33:30;1.73;;;1.63;;
19291;SDS011;9779;51.756;7.450;2023-02-28T10:35:59;2.27;;;1.40;;
19291;SDS011;9779;51.756;7.450;2023-02-28T10:38:27;1.33;;;1.17;;
19291;SDS011;9779;51.756;7.450;2023-02-28T10:41:10;3.43;;;2.00;;
19291;SDS011;9779;51.756;7.450;2023-02-28T10:43:37;1.43;;;1.33;;
19291;SDS011;9779;51.756;7.450;2023-02-28T10:48:34;1.83;;;1.40;;
19291;SDS011;9779;51.756;7.450;2023-02-28T10:51:08;1.30;;;1.10;;
19291;SDS011;9779;51.756;7.450;2023-02-28T10:53:37;1.30;;;1.20;;
19291;SDS011;9779;51.756;7.450;2023-02-28T10:56:16;1.80;;;1.70;;
19291;SDS011;9779;51.756;7.450;2023-02-28T11:04:03;1.67;;;1.57;;
19291;SDS011;9779;51.756;7.450;2023-02-28T11:06:29;1.40;;;1.30;;
19291;SDS011;9779;51.756;7.450;2023-02-28T11:09:03;3.73;;;1.40;;
19291;SDS011;9779;51.756;7.450;2023-02-28T11:11:45;2.50;;;1.40;;
19291;SDS011;9779;51.756;7.450;2023-02-28T11:14:17;2.97;;;1.23;;
19291;SDS011;9779;51.756;7.450;2023-02-28T11:16:48;1.47;;;1.37;;
19291;SDS011;9779;51.756;7.450;2023-02-28T11:19:25;2.07;;;1.57;;
19291;SDS011;9779;51.756;7.450;2023-02-28T11:21:57;1.53;;;1.43;;
19291;SDS011;9779;51.756;7.450;2023-02-28T11:24:28;2.03;;;1.47;;
19291;SDS011;9779;51.756;7.450;2023-02-28T11:26:58;3.00;;;2.80;;
19291;SDS011;9779;51.756;7.450;2023-02-28T11:29:25;1.50;;;1.40;;
19291;SDS011;9779;51.756;7.450;2023-02-28T11:32:04;1.30;;;1.20;;
19291;SDS011;9779;51.756;7.450;2023-02-28T11:34:36;1.70;;;1.50;;
19291;SDS011;9779;51.756;7.450;2023-02-28T11:37:03;1.33;;;1.23;;
19291;SDS011;9779;51.756;7.450;2023-02-28T11:39:31;1.80;;;1.70;;
19291;SDS011;9779;51.756;7.450;2023-02-28T11:44:53;1.40;;;1.37;;
19291;SDS011;9779;51.756;7.450;2023-02-28T11:47:42;1.63;;;1.40;;
19291;SDS011;9779;51.756;7.450;2023-02-28T11:58:51;2.90;;;1.00;;
19291;SDS011;9779;51.756;7.450;2023-02-28T12:04:09;2.00;;;1.60;;
19291;SDS011;9779;51.756;7.450;2023-02-28T12:06:50;1.20;;;1.10;;
19291;SDS011;9779;51.756;7.450;2023-02-28T12:09:40;1.37;;;1.27;;
19291;SDS011;9779;51.756;7.450;2023-02-28T12:12:38;1.37;;;1.20;;
19291;SDS011;9779;51.756;7.450;2023-02-28T12:17:57;1.57;;;1.47;;
19291;SDS011;9779;51.756;7.450;2023-02-28T12:20:26;1.83;;;1.10;;
19291;SDS011;9779;51.756;7.450;2023-02-28T12:23:05;3.70;;;1.17;;
19291;SDS011;9779;51.756;7.450;2023-02-28T12:29:09;1.53;;;1.43;;
19291;SDS011;9779;51.756;7.450;2023-02-28T12:34:43;1.83;;;1.73;;
19291;SDS011;9779;51.756;7.450;2023-02-28T12:37:17;1.50;;;1.40;;
19291;SDS011;9779;51.756;7.450;2023-02-28T12:39:51;2.73;;;1.20;;
19291;SDS011;9779;51.756;7.450;2023-02-28T12:42:28;1.57;;;1.47;;
19291;SDS011;9779;51.756;7.450;2023-02-28T12:45:08;2.80;;;1.80;;
19291;SDS011;9779;51.756;7.450;2023-02-28T12:47:40;1.30;;;1.20;;
19291;SDS011;9779;51.756;7.450;2023-02-28T12:50:10;1.57;;;1.20;;
19291;SDS011;9779;51.756;7.450;2023-02-28T12:52:58;4.33;;;1.33;;
19291;SDS011;9779;51.756;7.450;2023-02-28T12:58:03;1.20;;;1.20;;
19291;SDS011;9779;51.756;7.450;2023-02-28T13:01:14;1.10;;;1.10;;
19291;SDS011;9779;51.756;7.450;2023-02-28T13:09:12;1.60;;;1.17;;
19291;SDS011;9779;51.756;7.450;2023-02-28T13:11:49;3.33;;;1.50;;
19291;SDS011;9779;51.756;7.450;2023-02-28T13:19:43;1.53;;;1.43;;
19291;SDS011;9779;51.756;7.450;2023-02-28T13:24:51;1.20;;;1.10;;
19291;SDS011;9779;51.756;7.450;2023-02-28T13:27:24;1.30;;;1.20;;
19291;SDS011;9779;51.756;7.450;2023-02-28T13:33:26;1.60;;;1.50;;
19291;SDS011;9779;51.756;7.450;2023-02-28T13:44:12;1.60;;;1.40;;
19291;SDS011;9779;51.756;7.450;2023-02-28T13:57:50;1.73;;;1.20;;
19291;SDS011;9779;51.756;7.450;2023-02-28T14:00:43;3.83;;;1.60;;
19291;SDS011;9779;51.756;7.450;2023-02-28T14:03:23;1.60;;;1.50;;
19291;SDS011;9779;51.756;7.450;2023-02-28T14:11:42;4.23;;;1.40;;
19291;SDS011;9779;51.756;7.450;2023-02-28T14:14:10;1.60;;;1.50;;
19291;SDS011;9779;51.756;7.450;2023-02-28T14:17:03;2.00;;;1.57;;
19291;SDS011;9779;51.756;7.450;2023-02-28T14:19:32;1.43;;;1.33;;
19291;SDS011;9779;51.756;7.450;2023-02-28T14:27:32;1.80;;;1.33;;
19291;SDS011;9779;51.756;7.450;2023-02-28T14:30:41;1.47;;;1.30;;
19291;SDS011;9779;51.756;7.450;2023-02-28T14:36:06;3.73;;;1.30;;
19291;SDS011;9779;51.756;7.450;2023-02-28T14:38:51;1.80;;;1.47;;
19291;SDS011;9779;51.756;7.450;2023-02-28T14:41:21;3.27;;;1.30;;
19291;SDS011;9779;51.756;7.450;2023-02-28T14:43:49;2.83;;;1.77;;
19291;SDS011;9779;51.756;7.450;2023-02-28T14:46:28;1.50;;;1.37;;
19291;SDS011;9779;51.756;7.450;2023-02-28T14:49:01;1.67;;;1.57;;
19291;SDS011;9779;51.756;7.450;2023-02-28T14:51:29;2.53;;;1.70;;
19291;SDS011;9779;51.756;7.450;2023-02-28T14:53:59;6.77;;;1.80;;
19291;SDS011;9779;51.756;7.450;2023-02-28T14:56:34;2.00;;;1.57;;
19291;SDS011;9779;51.756;7.450;2023-02-28T14:58:59;3.17;;;1.50;;
19291;SDS011;9779;51.756;7.450;2023-02-28T15:01:25;2.30;;;1.50;;
19291;SDS011;9779;51.756;7.450;2023-02-28T15:03:59;1.70;;;1.60;;
19291;SDS011;9779;51.756;7.450;2023-02-28T15:06:30;1.60;;;1.50;;
19291;SDS011;9779;51.756;7.450;2023-02-28T15:09:10;2.20;;;1.40;;
19291;SDS011;9779;51.756;7.450;2023-02-28T15:11:39;1.67;;;1.30;;
19291;SDS011;9779;51.756;7.450;2023-02-28T15:14:05;1.60;;;1.50;;
19291;SDS011;9779;51.756;7.450;2023-02-28T15:16:35;1.70;;;1.60;;
19291;SDS011;9779;51.756;7.450;2023-02-28T15:19:06;1.53;;;1.43;;
19291;SDS011;9779;51.756;7.450;2023-02-28T15:21:39;1.80;;;1.70;;
19291;SDS011;9779;51.756;7.450;2023-02-28T15:24:12;4.40;;;1.60;;
19291;SDS011;9779;51.756;7.450;2023-02-28T15:26:48;1.67;;;1.40;;
19291;SDS011;9779;51.756;7.450;2023-02-28T15:29:20;1.60;;;1.50;;
19291;SDS011;9779;51.756;7.450;2023-02-28T15:31:54;2.93;;;1.50;;
19291;SDS011;9779;51.756;7.450;2023-02-28T15:34:30;4.23;;;3.83;;
19291;SDS011;9779;51.756;7.450;2023-02-28T15:37:06;9.50;;;7.57;;
19291;SDS011;9779;51.756;7.450;2023-02-28T15:39:51;4.27;;;2.40;;
19291;SDS011;9779;51.756;7.450;2023-02-28T15:42:21;3.93;;;2.10;;
19291;SDS011;9779;51.756;7.450;2023-02-28T15:44:52;2.33;;;1.90;;
19291;SDS011;9779;51.756;7.450;2023-02-28T15:47:18;2.20;;;2.00;;
19291;SDS011;9779;51.756;7.450;2023-02-28T15:49:49;1.97;;;1.87;;
19291;SDS011;9779;51.756;7.450;2023-02-28T15:52:19;2.40;;;1.70;;
19291;SDS011;9779;51.756;7.450;2023-02-28T15:57:43;2.70;;;1.93;;
19291;SDS011;9779;51.756;7.450;2023-02-28T16:00:11;2.10;;;2.00;;
19291;SDS011;9779;51.756;7.450;2023-02-28T16:02:40;2.10;;;1.70;;
19291;SDS011;9779;51.756;7.450;2023-02-28T16:07:41;4.17;;;2.33;;
19291;SDS011;9779;51.756;7.450;2023-02-28T16:10:09;2.00;;;1.80;;
19291;SDS011;9779;51.756;7.450;2023-02-28T16:12:37;3.73;;;2.27;;
19291;SDS011;9779;51.756;7.450;2023-02-28T16:15:20;1.60;;;1.50;;
19291;SDS011;9779;51.756;7.450;2023-02-28T16:17:47;2.30;;;2.10;;
19291;SDS011;9779;51.756;7.450;2023-02-28T16:20:15;2.60;;;2.40;;
19291;SDS011;9779;51.756;7.450;2023-02-28T16:22:43;2.80;;;2.47;;
19291;SDS011;9779;51.756;7.450;2023-02-28T16:25:12;2.83;;;2.53;;
19291;SDS011;9779;51.756;7.450;2023-02-28T16:27:39;2.77;;;1.87;;
19291;SDS011;9779;51.756;7.450;2023-02-28T16:30:06;2.00;;;1.80;;
19291;SDS011;9779;51.756;7.450;2023-02-28T16:32:38;2.10;;;1.93;;
19291;SDS011;9779;51.756;7.450;2023-02-28T16:35:05;1.87;;;1.77;;
19291;SDS011;9779;51.756;7.450;2023-02-28T16:37:34;2.13;;;1.70;;
19291;SDS011;9779;51.756;7.450;2023-02-28T16:40:00;2.17;;;1.97;;
19291;SDS011;9779;51.756;7.450;2023-02-28T16:42:27;5.27;;;4.00;;
19291;SDS011;9779;51.756;7.450;2023-02-28T16:44:54;3.50;;;3.20;;
19291;SDS011;9779;51.756;7.450;2023-02-28T16:47:20;6.27;;;3.67;;
19291;SDS011;9779;51.756;7.450;2023-02-28T16:49:46;4.33;;;4.03;;
19291;SDS011;9779;51.756;7.450;2023-02-28T16:52:12;3.00;;;2.80;;
19291;SDS011;9779;51.756;7.450;2023-02-28T16:54:39;2.50;;;2.30;;
19291;SDS011;9779;51.756;7.450;2023-02-28T16:57:05;3.60;;;3.40;;
19291;SDS011;9779;51.756;7.450;2023-02-28T16:59:40;4.00;;;3.70;;
19291;SDS011;9779;51.756;7.450;2023-02-28T17:02:10;3.83;;;3.63;;
19291;SDS011;9779;51.756;7.450;2023-02-28T17:04:38;4.37;;;4.03;;
19291;SDS011;9779;51.756;7.450;2023-02-28T17:07:03;3.80;;;3.60;;
19291;SDS011;9779;51.756;7.450;2023-02-28T17:09:29;9.43;;;8.60;;
19291;SDS011;9779;51.756;7.450;2023-02-28T17:11:54;19.87;;;15.20;;
19291;SDS011;9779;51.756;7.450;2023-02-28T17:14:21;18.37;;;15.67;;
19291;SDS011;9779;51.756;7.450;2023-02-28T17:16:48;8.80;;;8.07;;
19291;SDS011;9779;51.756;7.450;2023-02-28T17:19:15;8.60;;;7.10;;
19291;SDS011;9779;51.756;7.450;2023-02-28T17:21:42;6.70;;;6.20;;
19291;SDS011;9779;51.756;7.450;2023-02-28T17:24:08;6.07;;;5.57;;
19291;SDS011;9779;51.756;7.450;2023-02-28T17:26:37;6.77;;;5.03;;